createdAt,value
2023-05-20T00:00:11.486Z,19.51
2023-05-20T00:05:13.937Z,19.37
2023-05-20T00:10:16.196Z,19.47
2023-05-20T00:15:18.539Z,19.24
2023-05-20T00:20:21.391Z,19.00
2023-05-20T00:25:23.697Z,17.79
2023-05-20T00:30:26.103Z,18.06
2023-05-20T00:35:28.452Z,17.91
2023-05-20T00:40:30.802Z,18.10
2023-05-20T00:45:33.475Z,18.27
2023-05-20T00:50:36.314Z,18.34
2023-05-20T00:55:38.937Z,18.40
2023-05-20T01:00:41.679Z,18.56
2023-05-20T01:05:44.053Z,18.16
2023-05-20T01:10:50.007Z,18.41
2023-05-20T01:15:54.709Z,18.08
2023-05-20T01:21:02.066Z,17.53
2023-05-20T01:26:04.805Z,17.31
2023-05-20T01:31:18.960Z,17.71
2023-05-20T01:36:22.806Z,17.96
2023-05-20T01:41:27.463Z,17.80
2023-05-20T01:46:34.275Z,17.80
2023-05-20T01:51:37.543Z,17.24
2023-05-20T01:56:39.978Z,16.68
2023-05-20T02:01:42.389Z,15.63
2023-05-20T02:06:44.891Z,15.43
2023-05-20T02:11:47.278Z,16.06
2023-05-20T02:16:49.546Z,16.45
2023-05-20T02:21:54.110Z,16.49
2023-05-20T02:26:57.885Z,16.70
2023-05-20T02:32:00.331Z,17.07
2023-05-20T02:37:02.976Z,17.14
2023-05-20T02:42:05.508Z,17.31
2023-05-20T02:47:07.998Z,17.25
2023-05-20T02:52:10.283Z,17.41
2023-05-20T02:57:13.025Z,17.36
2023-05-20T03:02:15.356Z,17.64
2023-05-20T03:07:20.175Z,17.54
2023-05-20T03:12:22.524Z,17.60
2023-05-20T03:17:24.792Z,17.49
2023-05-20T03:22:27.157Z,17.56
2023-05-20T03:27:29.558Z,17.25
2023-05-20T03:32:31.990Z,17.08
2023-05-20T03:37:34.385Z,17.16
2023-05-20T03:42:40.436Z,16.68
2023-05-20T03:47:42.770Z,15.91
2023-05-20T03:52:45.644Z,15.06
2023-05-20T03:57:47.883Z,15.29
2023-05-20T04:02:50.232Z,15.31
2023-05-20T04:07:52.646Z,15.47
2023-05-20T04:12:54.949Z,16.07
2023-05-20T04:17:57.256Z,16.45
2023-05-20T04:23:00.102Z,16.85
2023-05-20T04:28:02.959Z,16.77
2023-05-20T04:33:05.291Z,16.88
2023-05-20T04:38:09.243Z,17.31
2023-05-20T04:43:11.513Z,17.47
2023-05-20T04:48:15.092Z,17.59
2023-05-20T04:53:18.005Z,17.61
2023-05-20T04:58:20.925Z,18.21
2023-05-20T05:03:23.255Z,18.08
2023-05-20T05:08:26.923Z,18.28
2023-05-20T05:13:29.322Z,18.30
2023-05-20T05:18:31.630Z,18.33
2023-05-20T05:23:34.141Z,18.55
2023-05-20T05:28:36.499Z,18.93
2023-05-20T05:33:38.856Z,18.70
2023-05-20T05:38:41.431Z,19.24
2023-05-20T05:43:43.748Z,19.40
2023-05-20T05:48:49.280Z,19.40
2023-05-20T05:53:51.593Z,19.61
2023-05-20T05:58:54.101Z,19.68
2023-05-20T06:03:56.686Z,19.38
2023-05-20T06:08:59.502Z,19.50
2023-05-20T06:14:03.111Z,19.32
2023-05-20T06:19:05.999Z,20.02
2023-05-20T06:24:08.725Z,20.02
2023-05-20T06:29:11.014Z,20.35
2023-05-20T06:34:13.473Z,20.66
2023-05-20T06:39:15.841Z,20.98
2023-05-20T06:44:19.300Z,21.16
2023-05-20T06:49:21.815Z,21.21
2023-05-20T06:54:24.210Z,21.24
2023-05-20T06:59:26.572Z,21.28
2023-05-20T07:04:28.958Z,21.26
2023-05-20T07:09:31.270Z,21.41
2023-05-20T07:14:33.641Z,21.53
2023-05-20T07:19:36.018Z,21.81
2023-05-20T07:24:39.107Z,22.03
2023-05-20T07:29:41.502Z,22.30
2023-05-20T07:34:44.176Z,22.46
2023-05-20T07:39:46.423Z,22.67
2023-05-20T07:44:48.648Z,22.70
2023-05-20T07:49:50.982Z,22.66
2023-05-20T07:54:53.300Z,23.09
2023-05-20T07:59:55.550Z,23.17
2023-05-20T08:04:57.756Z,23.71
2023-05-20T08:09:59.957Z,23.83
2023-05-20T08:15:02.540Z,24.08
2023-05-20T08:20:06.413Z,23.99
2023-05-20T08:25:09.721Z,23.82
2023-05-20T08:30:12.414Z,24.01
2023-05-20T08:35:14.746Z,24.77
2023-05-20T08:40:17.464Z,25.03
2023-05-20T08:45:28.276Z,25.17
2023-05-20T08:50:30.622Z,24.75
2023-05-20T08:55:43.875Z,25.11
2023-05-20T09:00:46.947Z,25.46
2023-05-20T09:05:49.641Z,25.54
2023-05-20T09:10:53.974Z,25.84
2023-05-20T09:15:56.305Z,26.21
2023-05-20T09:20:58.681Z,26.32
2023-05-20T09:26:04.964Z,26.47
2023-05-20T09:31:09.286Z,26.61
2023-05-20T09:36:12.590Z,26.84
2023-05-20T09:41:15.825Z,26.78
2023-05-20T09:46:19.456Z,27.16
2023-05-20T09:51:24.750Z,27.31
2023-05-20T09:56:29.005Z,27.33
2023-05-20T10:01:31.639Z,27.42
2023-05-20T10:06:39.746Z,27.71
2023-05-20T10:11:57.069Z,27.67
2023-05-20T10:17:16.561Z,28.00
2023-05-20T10:22:34.311Z,28.22
2023-05-20T10:27:47.032Z,28.37
2023-05-20T10:32:54.408Z,28.69
2023-05-20T10:38:10.119Z,28.50
2023-05-20T10:43:26.907Z,28.48
2023-05-20T10:48:32.122Z,28.55
2023-05-20T10:53:42.643Z,28.70
2023-05-20T10:58:45.686Z,28.77
2023-05-20T11:03:49.860Z,28.55
2023-05-20T11:08:52.426Z,28.83
2023-05-20T11:13:58.007Z,28.96
2023-05-20T11:19:00.308Z,28.98
2023-05-20T11:24:02.654Z,29.17
2023-05-20T11:29:05.310Z,29.33
2023-05-20T11:34:07.701Z,29.18
2023-05-20T11:39:15.224Z,29.44
2023-05-20T11:44:20.831Z,29.38
2023-05-20T11:49:23.339Z,29.57
2023-05-20T11:54:26.502Z,30.07
2023-05-20T11:59:28.834Z,30.03
2023-05-20T12:04:31.314Z,30.10
2023-05-20T12:09:33.666Z,30.13
2023-05-20T12:14:35.962Z,29.97
2023-05-20T12:19:39.773Z,30.22
2023-05-20T12:24:43.548Z,30.31
2023-05-20T12:29:45.835Z,29.93
2023-05-20T12:34:48.214Z,29.97
2023-05-20T12:39:50.578Z,30.10
2023-05-20T12:44:52.925Z,30.34
2023-05-20T12:49:55.255Z,30.07
2023-05-20T12:54:58.061Z,30.13
2023-05-20T13:00:00.339Z,30.39
2023-05-20T13:05:02.770Z,30.50
2023-05-20T13:10:05.997Z,30.62
2023-05-20T13:15:08.839Z,30.86
2023-05-20T13:20:12.446Z,30.90
2023-05-20T13:25:14.849Z,30.61
2023-05-20T13:30:17.413Z,31.16
2023-05-20T13:35:20.074Z,31.32
2023-05-20T13:40:23.046Z,31.33
2023-05-20T13:45:26.162Z,32.02
2023-05-20T13:50:28.528Z,32.12
2023-05-20T13:55:30.954Z,31.62
2023-05-20T14:00:33.518Z,31.22
2023-05-20T14:05:36.437Z,31.09
2023-05-20T14:10:38.909Z,31.05
2023-05-20T14:15:41.670Z,31.30
2023-05-20T14:20:44.651Z,31.83
2023-05-20T14:25:47.095Z,31.95
2023-05-20T14:30:49.515Z,32.01
2023-05-20T14:35:51.905Z,31.84
2023-05-20T14:40:54.494Z,31.55
2023-05-20T14:45:57.059Z,31.37
2023-05-20T14:50:59.426Z,31.35
2023-05-20T14:56:01.877Z,32.07
2023-05-20T15:01:04.540Z,32.19
2023-05-20T15:06:07.021Z,32.38
2023-05-20T15:11:10.431Z,32.60
2023-05-20T15:16:13.887Z,32.80
2023-05-20T15:21:16.218Z,32.51
2023-05-20T15:26:18.619Z,32.00
2023-05-20T15:31:21.238Z,31.26
2023-05-20T15:36:23.673Z,29.40
2023-05-20T15:41:26.731Z,28.98
2023-05-20T15:46:29.180Z,28.59
2023-05-20T15:51:31.836Z,27.67
2023-05-20T15:56:34.358Z,26.15
2023-05-20T16:01:37.999Z,26.18
2023-05-20T16:06:42.432Z,25.75
2023-05-20T16:11:44.923Z,24.93
2023-05-20T16:16:47.242Z,25.01
2023-05-20T16:21:49.607Z,25.50
2023-05-20T16:26:52.428Z,26.09
2023-05-20T16:31:54.827Z,26.06
2023-05-20T16:36:57.226Z,26.31
2023-05-20T16:41:59.890Z,25.97
2023-05-20T16:47:02.518Z,25.97
2023-05-20T16:52:05.288Z,25.95
2023-05-20T16:57:08.697Z,25.92
2023-05-20T17:02:11.113Z,25.88
2023-05-20T17:07:14.067Z,25.63
2023-05-20T17:12:16.993Z,25.42
2023-05-20T17:17:19.362Z,25.51
2023-05-20T17:22:21.847Z,25.55
2023-05-20T17:27:24.387Z,25.46
2023-05-20T17:32:26.805Z,25.35
2023-05-20T17:37:29.852Z,24.75
2023-05-20T17:42:32.791Z,24.93
2023-05-20T17:47:35.148Z,24.89
2023-05-20T17:52:37.636Z,24.68
2023-05-20T17:57:40.033Z,24.35
2023-05-20T18:02:47.733Z,24.06
2023-05-20T18:07:50.109Z,24.29
2023-05-20T18:12:52.428Z,24.29
2023-05-20T18:17:56.863Z,24.08
2023-05-20T18:22:59.217Z,24.03
2023-05-20T18:28:02.160Z,23.33
2023-05-20T18:33:04.602Z,22.88
2023-05-20T18:38:07.536Z,23.24
2023-05-20T18:43:09.848Z,23.25
2023-05-20T18:48:15.824Z,22.33
2023-05-20T18:53:22.962Z,21.97
2023-05-20T18:58:25.164Z,22.82
2023-05-20T19:03:27.543Z,22.91
2023-05-20T19:08:29.747Z,23.15
2023-05-20T19:13:32.145Z,23.23
2023-05-20T19:18:34.465Z,22.70
2023-05-20T19:23:37.010Z,22.51
2023-05-20T19:28:39.682Z,22.04
2023-05-20T19:33:41.936Z,21.05
2023-05-20T19:38:44.794Z,21.55
2023-05-20T19:43:47.255Z,21.90
2023-05-20T19:48:49.712Z,22.05
2023-05-20T19:53:52.104Z,22.24
2023-05-20T19:58:54.480Z,22.20
2023-05-20T20:03:56.859Z,22.28
2023-05-20T20:08:59.380Z,22.04
2023-05-20T20:14:01.827Z,22.13
2023-05-20T20:19:05.515Z,22.18
2023-05-20T20:24:07.757Z,21.69
2023-05-20T20:29:10.212Z,21.55
2023-05-20T20:34:12.681Z,21.93
2023-05-20T20:39:19.452Z,22.43
2023-05-20T20:44:22.903Z,22.48
2023-05-20T20:49:26.901Z,22.58
2023-05-20T20:54:30.635Z,22.67
2023-05-20T20:59:33.076Z,22.68
2023-05-20T21:04:35.459Z,22.41
2023-05-20T21:09:38.315Z,22.69
2023-05-20T21:14:40.691Z,22.52
2023-05-20T21:19:42.962Z,22.57
2023-05-20T21:24:45.264Z,22.68
2023-05-20T21:29:48.902Z,22.46
2023-05-20T21:34:51.538Z,22.34
2023-05-20T21:39:53.927Z,22.24
2023-05-20T21:44:56.446Z,22.17
2023-05-20T21:49:58.827Z,22.37
2023-05-20T21:55:01.134Z,22.34
2023-05-20T22:00:11.538Z,22.15
2023-05-20T22:05:13.987Z,22.03
2023-05-20T22:10:23.335Z,22.10
2023-05-20T22:15:26.625Z,22.13
2023-05-20T22:20:29.128Z,21.97
2023-05-20T22:25:32.043Z,22.09
2023-05-20T22:30:34.801Z,21.76
2023-05-20T22:35:37.174Z,21.82
2023-05-20T22:40:39.864Z,21.56
2023-05-20T22:45:42.136Z,21.71
2023-05-20T22:50:44.399Z,21.76
2023-05-20T22:55:46.740Z,21.68
2023-05-20T23:00:49.288Z,21.50
2023-05-20T23:05:51.604Z,21.60
2023-05-20T23:10:53.978Z,21.69
2023-05-20T23:15:56.249Z,21.65
2023-05-20T23:20:58.635Z,21.64
2023-05-20T23:26:01.992Z,21.70
2023-05-20T23:31:04.394Z,21.79
2023-05-20T23:36:09.757Z,21.68
2023-05-20T23:41:12.193Z,21.49
2023-05-20T23:46:14.716Z,21.22
2023-05-20T23:51:17.082Z,21.35
2023-05-20T23:56:19.320Z,21.12
